KHBG/HBG METAR and TAF weather

Enter ICAO airport designator
Station Type Date Time Source
KHBG METAR 2019/04/20 21:53 UTC NOAA

KHBG 202153Z AUTO 30013KT 10SM CLR 22/M01 A2997 RMK AO2 SLP147 T02171006


Station Type Date Time Source
KHBG Decoded METAR 2019/04/20 21:53 UTC NOAA

HATTIESBURG CHAIN MUNICIPAL, MS, United States (KHBG) 31-16N 89-15W 44M
Apr 20, 2019 - 05:53 PM EDT / 2019.04.20 2153 UTC
Wind: from the WNW (300 degrees) at 15 MPH (13 KT):0
Visibility: 10 mile(s):0
Sky conditions: clear
Temperature: 71.1 F (21.7 C)
Dew Point: 30.9 F (-0.6 C)
Relative Humidity: 22%
Pressure (altimeter): 29.97 in. Hg (1014 hPa)
ob: KHBG 202153Z AUTO 30013KT 10SM CLR 22/M01 A2997 RMK AO2 SLP147 T02171006
cycle: 22

Station Type Date Time Source
KHBG TAF 2019/04/20 18:28 UTC NOAA

TAF KHBG 201725Z 2018/2118 30014G21KT P6SM SKC
FM210000 24003KT P6SM SKC

Example: see airport list